sensor_id;sensor_type;location;lat;lon;timestamp;P1;durP1;ratioP1;P2;durP2;ratioP2
36593;SDS011;22603;47.900;8.146;2022-08-21T00:00:11;3.73;;;1.80;;
36593;SDS011;22603;47.900;8.146;2022-08-21T00:03:03;4.80;;;2.00;;
36593;SDS011;22603;47.900;8.146;2022-08-21T00:05:52;6.10;;;1.90;;
36593;SDS011;22603;47.900;8.146;2022-08-21T00:08:40;4.73;;;1.90;;
36593;SDS011;22603;47.900;8.146;2022-08-21T00:11:28;5.27;;;1.70;;
36593;SDS011;22603;47.900;8.146;2022-08-21T00:14:16;3.73;;;1.70;;
36593;SDS011;22603;47.900;8.146;2022-08-21T00:17:03;4.33;;;1.70;;
36593;SDS011;22603;47.900;8.146;2022-08-21T00:19:51;7.20;;;2.13;;
36593;SDS011;22603;47.900;8.146;2022-08-21T00:22:38;4.80;;;2.10;;
36593;SDS011;22603;47.900;8.146;2022-08-21T00:25:27;3.93;;;1.77;;
36593;SDS011;22603;47.900;8.146;2022-08-21T00:28:14;6.47;;;1.83;;
36593;SDS011;22603;47.900;8.146;2022-08-21T00:31:01;7.03;;;1.63;;
36593;SDS011;22603;47.900;8.146;2022-08-21T00:33:49;4.57;;;1.90;;
36593;SDS011;22603;47.900;8.146;2022-08-21T00:36:40;4.43;;;2.20;;
36593;SDS011;22603;47.900;8.146;2022-08-21T00:39:27;4.77;;;2.00;;
36593;SDS011;22603;47.900;8.146;2022-08-21T00:42:16;3.77;;;1.77;;
36593;SDS011;22603;47.900;8.146;2022-08-21T00:45:06;3.47;;;1.60;;
36593;SDS011;22603;47.900;8.146;2022-08-21T00:47:54;4.67;;;2.30;;
36593;SDS011;22603;47.900;8.146;2022-08-21T00:50:42;4.27;;;1.70;;
36593;SDS011;22603;47.900;8.146;2022-08-21T00:53:32;3.27;;;1.63;;
36593;SDS011;22603;47.900;8.146;2022-08-21T00:56:21;3.43;;;1.57;;
36593;SDS011;22603;47.900;8.146;2022-08-21T00:59:12;3.80;;;1.70;;
36593;SDS011;22603;47.900;8.146;2022-08-21T01:01:59;3.50;;;1.60;;
36593;SDS011;22603;47.900;8.146;2022-08-21T01:04:46;3.50;;;1.60;;
36593;SDS011;22603;47.900;8.146;2022-08-21T01:07:34;4.23;;;1.60;;
36593;SDS011;22603;47.900;8.146;2022-08-21T01:10:21;3.10;;;1.60;;
36593;SDS011;22603;47.900;8.146;2022-08-21T01:13:09;2.73;;;1.60;;
36593;SDS011;22603;47.900;8.146;2022-08-21T01:16:01;2.80;;;1.40;;
36593;SDS011;22603;47.900;8.146;2022-08-21T01:18:51;3.53;;;1.57;;
36593;SDS011;22603;47.900;8.146;2022-08-21T01:21:39;2.93;;;1.43;;
36593;SDS011;22603;47.900;8.146;2022-08-21T01:24:28;3.53;;;1.43;;
36593;SDS011;22603;47.900;8.146;2022-08-21T01:27:16;3.73;;;1.80;;
36593;SDS011;22603;47.900;8.146;2022-08-21T01:30:07;3.03;;;1.40;;
36593;SDS011;22603;47.900;8.146;2022-08-21T01:32:57;3.57;;;1.70;;
36593;SDS011;22603;47.900;8.146;2022-08-21T01:35:44;6.00;;;1.97;;
36593;SDS011;22603;47.900;8.146;2022-08-21T01:38:33;2.97;;;1.60;;
36593;SDS011;22603;47.900;8.146;2022-08-21T01:41:20;3.20;;;1.63;;
36593;SDS011;22603;47.900;8.146;2022-08-21T01:44:08;4.60;;;1.80;;
36593;SDS011;22603;47.900;8.146;2022-08-21T01:46:55;3.47;;;1.70;;
36593;SDS011;22603;47.900;8.146;2022-08-21T01:49:44;3.77;;;1.50;;
36593;SDS011;22603;47.900;8.146;2022-08-21T01:52:31;3.80;;;1.47;;
36593;SDS011;22603;47.900;8.146;2022-08-21T01:55:20;2.77;;;1.30;;
36593;SDS011;22603;47.900;8.146;2022-08-21T01:58:08;2.73;;;1.50;;
36593;SDS011;22603;47.900;8.146;2022-08-21T02:00:56;4.00;;;1.50;;
36593;SDS011;22603;47.900;8.146;2022-08-21T02:03:43;2.93;;;1.40;;
36593;SDS011;22603;47.900;8.146;2022-08-21T02:06:30;2.93;;;1.50;;
36593;SDS011;22603;47.900;8.146;2022-08-21T02:09:17;2.23;;;1.50;;
36593;SDS011;22603;47.900;8.146;2022-08-21T02:12:06;3.53;;;1.57;;
36593;SDS011;22603;47.900;8.146;2022-08-21T02:14:54;4.13;;;1.87;;
36593;SDS011;22603;47.900;8.146;2022-08-21T02:17:42;3.50;;;1.67;;
36593;SDS011;22603;47.900;8.146;2022-08-21T02:20:31;3.27;;;1.50;;
36593;SDS011;22603;47.900;8.146;2022-08-21T02:23:21;3.67;;;1.50;;
36593;SDS011;22603;47.900;8.146;2022-08-21T02:26:12;3.17;;;1.70;;
36593;SDS011;22603;47.900;8.146;2022-08-21T02:29:01;3.70;;;1.60;;
36593;SDS011;22603;47.900;8.146;2022-08-21T02:31:48;4.93;;;1.67;;
36593;SDS011;22603;47.900;8.146;2022-08-21T02:34:36;3.67;;;1.60;;
36593;SDS011;22603;47.900;8.146;2022-08-21T02:37:23;4.00;;;1.90;;
36593;SDS011;22603;47.900;8.146;2022-08-21T02:40:11;3.97;;;1.70;;
36593;SDS011;22603;47.900;8.146;2022-08-21T02:42:59;6.33;;;1.90;;
36593;SDS011;22603;47.900;8.146;2022-08-21T02:45:49;3.93;;;1.80;;
36593;SDS011;22603;47.900;8.146;2022-08-21T02:48:37;4.80;;;1.57;;
36593;SDS011;22603;47.900;8.146;2022-08-21T02:51:25;5.73;;;1.70;;
36593;SDS011;22603;47.900;8.146;2022-08-21T02:54:12;3.23;;;1.53;;
36593;SDS011;22603;47.900;8.146;2022-08-21T02:56:59;4.27;;;1.80;;
36593;SDS011;22603;47.900;8.146;2022-08-21T02:59:46;2.23;;;1.30;;
36593;SDS011;22603;47.900;8.146;2022-08-21T03:02:34;3.07;;;1.30;;
36593;SDS011;22603;47.900;8.146;2022-08-21T03:05:21;3.20;;;1.57;;
36593;SDS011;22603;47.900;8.146;2022-08-21T03:08:10;4.50;;;1.43;;
36593;SDS011;22603;47.900;8.146;2022-08-21T03:10:58;3.00;;;1.60;;
36593;SDS011;22603;47.900;8.146;2022-08-21T03:13:46;3.30;;;1.43;;
36593;SDS011;22603;47.900;8.146;2022-08-21T03:16:33;3.37;;;1.70;;
36593;SDS011;22603;47.900;8.146;2022-08-21T03:19:21;3.47;;;1.40;;
36593;SDS011;22603;47.900;8.146;2022-08-21T03:22:08;3.90;;;1.70;;
36593;SDS011;22603;47.900;8.146;2022-08-21T03:24:55;2.73;;;1.60;;
36593;SDS011;22603;47.900;8.146;2022-08-21T03:27:43;6.27;;;1.40;;
36593;SDS011;22603;47.900;8.146;2022-08-21T03:30:32;3.93;;;1.63;;
36593;SDS011;22603;47.900;8.146;2022-08-21T03:33:19;3.17;;;1.50;;
36593;SDS011;22603;47.900;8.146;2022-08-21T03:36:09;4.33;;;1.73;;
36593;SDS011;22603;47.900;8.146;2022-08-21T03:38:58;5.40;;;1.93;;
36593;SDS011;22603;47.900;8.146;2022-08-21T03:41:45;4.20;;;1.90;;
36593;SDS011;22603;47.900;8.146;2022-08-21T03:44:33;4.07;;;1.80;;
36593;SDS011;22603;47.900;8.146;2022-08-21T03:47:21;4.77;;;1.70;;
36593;SDS011;22603;47.900;8.146;2022-08-21T03:50:09;5.47;;;1.80;;
36593;SDS011;22603;47.900;8.146;2022-08-21T03:52:57;5.17;;;1.90;;
36593;SDS011;22603;47.900;8.146;2022-08-21T03:55:45;5.33;;;1.80;;
36593;SDS011;22603;47.900;8.146;2022-08-21T03:58:33;4.70;;;1.80;;
36593;SDS011;22603;47.900;8.146;2022-08-21T04:01:21;3.30;;;1.80;;
36593;SDS011;22603;47.900;8.146;2022-08-21T04:04:08;3.17;;;1.70;;
36593;SDS011;22603;47.900;8.146;2022-08-21T04:06:58;3.80;;;1.60;;
36593;SDS011;22603;47.900;8.146;2022-08-21T04:09:47;4.17;;;1.73;;
36593;SDS011;22603;47.900;8.146;2022-08-21T04:12:33;5.33;;;1.97;;
36593;SDS011;22603;47.900;8.146;2022-08-21T04:15:21;5.83;;;2.13;;
36593;SDS011;22603;47.900;8.146;2022-08-21T04:18:09;4.43;;;1.93;;
36593;SDS011;22603;47.900;8.146;2022-08-21T04:20:57;7.20;;;2.10;;
36593;SDS011;22603;47.900;8.146;2022-08-21T04:23:46;21.07;;;2.13;;
36593;SDS011;22603;47.900;8.146;2022-08-21T04:26:34;8.27;;;2.30;;
36593;SDS011;22603;47.900;8.146;2022-08-21T04:29:21;9.13;;;2.17;;
36593;SDS011;22603;47.900;8.146;2022-08-21T04:32:08;17.23;;;2.17;;
36593;SDS011;22603;47.900;8.146;2022-08-21T04:34:59;23.73;;;2.57;;
36593;SDS011;22603;47.900;8.146;2022-08-21T04:37:49;11.73;;;2.20;;
36593;SDS011;22603;47.900;8.146;2022-08-21T04:40:36;24.33;;;2.80;;
36593;SDS011;22603;47.900;8.146;2022-08-21T04:43:25;19.40;;;2.60;;
36593;SDS011;22603;47.900;8.146;2022-08-21T04:46:14;11.33;;;2.20;;
36593;SDS011;22603;47.900;8.146;2022-08-21T04:49:03;25.17;;;2.93;;
36593;SDS011;22603;47.900;8.146;2022-08-21T04:51:51;24.27;;;2.20;;
36593;SDS011;22603;47.900;8.146;2022-08-21T04:54:38;8.63;;;2.30;;
36593;SDS011;22603;47.900;8.146;2022-08-21T04:57:26;7.93;;;2.10;;
36593;SDS011;22603;47.900;8.146;2022-08-21T05:00:34;4.13;;;1.70;;
36593;SDS011;22603;47.900;8.146;2022-08-21T05:03:22;4.67;;;1.93;;
36593;SDS011;22603;47.900;8.146;2022-08-21T05:06:10;4.00;;;1.80;;
36593;SDS011;22603;47.900;8.146;2022-08-21T05:08:59;5.33;;;1.80;;
36593;SDS011;22603;47.900;8.146;2022-08-21T05:11:46;13.50;;;1.70;;
36593;SDS011;22603;47.900;8.146;2022-08-21T05:14:35;4.87;;;1.80;;
36593;SDS011;22603;47.900;8.146;2022-08-21T05:17:23;4.13;;;1.50;;
36593;SDS011;22603;47.900;8.146;2022-08-21T05:20:11;2.93;;;1.73;;
36593;SDS011;22603;47.900;8.146;2022-08-21T05:22:59;11.80;;;2.07;;
36593;SDS011;22603;47.900;8.146;2022-08-21T05:25:47;10.97;;;2.30;;
36593;SDS011;22603;47.900;8.146;2022-08-21T05:28:34;15.67;;;2.33;;
36593;SDS011;22603;47.900;8.146;2022-08-21T05:31:21;16.27;;;2.17;;
36593;SDS011;22603;47.900;8.146;2022-08-21T05:34:09;16.43;;;2.43;;
36593;SDS011;22603;47.900;8.146;2022-08-21T05:37:00;11.13;;;2.70;;
36593;SDS011;22603;47.900;8.146;2022-08-21T05:39:51;5.23;;;2.30;;
36593;SDS011;22603;47.900;8.146;2022-08-21T05:42:59;7.43;;;2.30;;
36593;SDS011;22603;47.900;8.146;2022-08-21T05:45:47;11.33;;;2.53;;
36593;SDS011;22603;47.900;8.146;2022-08-21T05:48:34;6.43;;;2.10;;
36593;SDS011;22603;47.900;8.146;2022-08-21T05:51:24;5.30;;;2.10;;
36593;SDS011;22603;47.900;8.146;2022-08-21T05:54:10;6.27;;;2.00;;
36593;SDS011;22603;47.900;8.146;2022-08-21T05:56:58;6.87;;;2.17;;
36593;SDS011;22603;47.900;8.146;2022-08-21T05:59:44;6.27;;;2.17;;
36593;SDS011;22603;47.900;8.146;2022-08-21T06:02:32;6.53;;;2.23;;
36593;SDS011;22603;47.900;8.146;2022-08-21T06:05:19;4.33;;;1.90;;
36593;SDS011;22603;47.900;8.146;2022-08-21T06:08:23;8.87;;;2.47;;
36593;SDS011;22603;47.900;8.146;2022-08-21T06:11:11;9.33;;;4.13;;
36593;SDS011;22603;47.900;8.146;2022-08-21T06:13:58;7.23;;;2.90;;
36593;SDS011;22603;47.900;8.146;2022-08-21T06:16:46;3.83;;;1.70;;
36593;SDS011;22603;47.900;8.146;2022-08-21T06:19:34;4.10;;;1.80;;
36593;SDS011;22603;47.900;8.146;2022-08-21T06:22:21;5.13;;;2.37;;
36593;SDS011;22603;47.900;8.146;2022-08-21T06:25:10;6.13;;;2.80;;
36593;SDS011;22603;47.900;8.146;2022-08-21T06:28:00;4.97;;;2.20;;
36593;SDS011;22603;47.900;8.146;2022-08-21T06:30:48;5.60;;;2.37;;
36593;SDS011;22603;47.900;8.146;2022-08-21T06:33:35;5.00;;;2.30;;
36593;SDS011;22603;47.900;8.146;2022-08-21T06:36:22;8.00;;;1.77;;
36593;SDS011;22603;47.900;8.146;2022-08-21T06:39:09;7.40;;;2.30;;
36593;SDS011;22603;47.900;8.146;2022-08-21T06:42:13;5.60;;;1.80;;
36593;SDS011;22603;47.900;8.146;2022-08-21T06:45:01;7.20;;;1.90;;
36593;SDS011;22603;47.900;8.146;2022-08-21T06:47:48;3.55;;;1.52;;
36593;SDS011;22603;47.900;8.146;2022-08-21T06:50:35;3.92;;;1.60;;
36593;SDS011;22603;47.900;8.146;2022-08-21T06:53:23;4.00;;;1.60;;
36593;SDS011;22603;47.900;8.146;2022-08-21T06:56:12;3.85;;;1.35;;
36593;SDS011;22603;47.900;8.146;2022-08-21T06:59:01;3.42;;;1.50;;
36593;SDS011;22603;47.900;8.146;2022-08-21T07:01:48;4.00;;;1.58;;
36593;SDS011;22603;47.900;8.146;2022-08-21T07:04:36;3.13;;;1.70;;
36593;SDS011;22603;47.900;8.146;2022-08-21T07:07:28;4.88;;;1.65;;
36593;SDS011;22603;47.900;8.146;2022-08-21T07:10:16;3.92;;;1.70;;
36593;SDS011;22603;47.900;8.146;2022-08-21T07:13:06;4.07;;;1.60;;
36593;SDS011;22603;47.900;8.146;2022-08-21T07:15:55;7.05;;;1.75;;
36593;SDS011;22603;47.900;8.146;2022-08-21T07:18:48;5.05;;;1.63;;
36593;SDS011;22603;47.900;8.146;2022-08-21T07:21:36;3.22;;;1.73;;
36593;SDS011;22603;47.900;8.146;2022-08-21T07:24:23;7.82;;;1.60;;
36593;SDS011;22603;47.900;8.146;2022-08-21T07:27:10;4.05;;;1.30;;
36593;SDS011;22603;47.900;8.146;2022-08-21T07:29:57;4.40;;;1.65;;
36593;SDS011;22603;47.900;8.146;2022-08-21T07:32:46;4.80;;;1.77;;
36593;SDS011;22603;47.900;8.146;2022-08-21T07:35:34;4.07;;;1.65;;
36593;SDS011;22603;47.900;8.146;2022-08-21T07:38:21;2.67;;;1.55;;
36593;SDS011;22603;47.900;8.146;2022-08-21T07:41:10;7.65;;;2.13;;
36593;SDS011;22603;47.900;8.146;2022-08-21T07:44:00;3.40;;;1.50;;
36593;SDS011;22603;47.900;8.146;2022-08-21T07:46:50;2.47;;;1.50;;
36593;SDS011;22603;47.900;8.146;2022-08-21T07:49:39;5.32;;;1.60;;
36593;SDS011;22603;47.900;8.146;2022-08-21T07:52:26;3.67;;;1.40;;
36593;SDS011;22603;47.900;8.146;2022-08-21T07:55:17;3.55;;;1.63;;
36593;SDS011;22603;47.900;8.146;2022-08-21T07:58:06;3.88;;;1.40;;
36593;SDS011;22603;47.900;8.146;2022-08-21T08:00:53;4.22;;;1.58;;
36593;SDS011;22603;47.900;8.146;2022-08-21T08:03:41;3.67;;;1.70;;
36593;SDS011;22603;47.900;8.146;2022-08-21T08:06:29;3.92;;;1.60;;
36593;SDS011;22603;47.900;8.146;2022-08-21T08:09:17;4.57;;;1.60;;
36593;SDS011;22603;47.900;8.146;2022-08-21T08:12:04;8.27;;;1.50;;
36593;SDS011;22603;47.900;8.146;2022-08-21T08:14:52;7.43;;;1.63;;
36593;SDS011;22603;47.900;8.146;2022-08-21T08:17:39;6.70;;;1.80;;
36593;SDS011;22603;47.900;8.146;2022-08-21T08:20:26;8.75;;;1.90;;
36593;SDS011;22603;47.900;8.146;2022-08-21T08:23:15;6.38;;;2.10;;
36593;SDS011;22603;47.900;8.146;2022-08-21T08:26:03;4.43;;;1.95;;
36593;SDS011;22603;47.900;8.146;2022-08-21T08:28:50;4.68;;;2.08;;
36593;SDS011;22603;47.900;8.146;2022-08-21T08:31:38;4.45;;;1.65;;
36593;SDS011;22603;47.900;8.146;2022-08-21T08:34:24;4.93;;;1.80;;
36593;SDS011;22603;47.900;8.146;2022-08-21T08:37:11;5.65;;;2.00;;
36593;SDS011;22603;47.900;8.146;2022-08-21T08:40:01;5.30;;;2.00;;
36593;SDS011;22603;47.900;8.146;2022-08-21T08:42:49;3.35;;;1.80;;
36593;SDS011;22603;47.900;8.146;2022-08-21T08:45:37;7.05;;;1.70;;
36593;SDS011;22603;47.900;8.146;2022-08-21T08:48:31;4.13;;;1.65;;
36593;SDS011;22603;47.900;8.146;2022-08-21T08:51:28;5.20;;;1.70;;
36593;SDS011;22603;47.900;8.146;2022-08-21T08:54:25;4.10;;;1.30;;
36593;SDS011;22603;47.900;8.146;2022-08-21T08:57:19;5.47;;;1.45;;
36593;SDS011;22603;47.900;8.146;2022-08-21T09:00:11;6.53;;;1.30;;
36593;SDS011;22603;47.900;8.146;2022-08-21T09:03:02;4.47;;;1.30;;
36593;SDS011;22603;47.900;8.146;2022-08-21T09:05:51;5.05;;;1.42;;
36593;SDS011;22603;47.900;8.146;2022-08-21T09:08:45;4.20;;;1.60;;
36593;SDS011;22603;47.900;8.146;2022-08-21T09:11:39;4.15;;;1.38;;
36593;SDS011;22603;47.900;8.146;2022-08-21T09:14:37;5.88;;;1.52;;
36593;SDS011;22603;47.900;8.146;2022-08-21T09:17:36;5.25;;;1.60;;
36593;SDS011;22603;47.900;8.146;2022-08-21T09:20:32;11.70;;;1.88;;
36593;SDS011;22603;47.900;8.146;2022-08-21T09:23:25;5.45;;;1.60;;
36593;SDS011;22603;47.900;8.146;2022-08-21T09:26:25;5.07;;;1.60;;
36593;SDS011;22603;47.900;8.146;2022-08-21T09:29:16;4.18;;;1.50;;
36593;SDS011;22603;47.900;8.146;2022-08-21T09:32:11;5.97;;;1.40;;
36593;SDS011;22603;47.900;8.146;2022-08-21T09:35:05;3.67;;;1.20;;
36593;SDS011;22603;47.900;8.146;2022-08-21T09:37:55;4.43;;;1.80;;
36593;SDS011;22603;47.900;8.146;2022-08-21T09:40:47;5.38;;;1.40;;
36593;SDS011;22603;47.900;8.146;2022-08-21T09:43:51;5.03;;;1.58;;
36593;SDS011;22603;47.900;8.146;2022-08-21T09:46:49;5.72;;;1.88;;
36593;SDS011;22603;47.900;8.146;2022-08-21T09:49:39;8.43;;;1.52;;
36593;SDS011;22603;47.900;8.146;2022-08-21T09:52:28;7.70;;;1.83;;
36593;SDS011;22603;47.900;8.146;2022-08-21T09:55:18;3.45;;;1.52;;
36593;SDS011;22603;47.900;8.146;2022-08-21T09:58:30;6.30;;;1.70;;
36593;SDS011;22603;47.900;8.146;2022-08-21T10:01:20;2.80;;;1.35;;
36593;SDS011;22603;47.900;8.146;2022-08-21T10:04:10;6.18;;;1.67;;
36593;SDS011;22603;47.900;8.146;2022-08-21T10:07:07;3.97;;;1.38;;
36593;SDS011;22603;47.900;8.146;2022-08-21T10:09:58;5.32;;;1.60;;
36593;SDS011;22603;47.900;8.146;2022-08-21T10:12:48;4.13;;;1.23;;
36593;SDS011;22603;47.900;8.146;2022-08-21T10:15:45;4.25;;;1.23;;
36593;SDS011;22603;47.900;8.146;2022-08-21T10:18:42;2.88;;;1.42;;
36593;SDS011;22603;47.900;8.146;2022-08-21T10:21:36;4.68;;;1.40;;
36593;SDS011;22603;47.900;8.146;2022-08-21T10:24:29;6.00;;;1.92;;
36593;SDS011;22603;47.900;8.146;2022-08-21T10:27:22;4.72;;;1.30;;
36593;SDS011;22603;47.900;8.146;2022-08-21T10:30:21;6.03;;;1.92;;
36593;SDS011;22603;47.900;8.146;2022-08-21T10:33:19;7.20;;;1.60;;
36593;SDS011;22603;47.900;8.146;2022-08-21T10:36:18;6.18;;;2.08;;
36593;SDS011;22603;47.900;8.146;2022-08-21T10:39:13;4.90;;;1.60;;
36593;SDS011;22603;47.900;8.146;2022-08-21T10:42:29;2.72;;;1.50;;
36593;SDS011;22603;47.900;8.146;2022-08-21T10:45:25;6.93;;;1.77;;
36593;SDS011;22603;47.900;8.146;2022-08-21T10:48:25;5.82;;;1.85;;
36593;SDS011;22603;47.900;8.146;2022-08-21T10:51:20;5.85;;;1.75;;
36593;SDS011;22603;47.900;8.146;2022-08-21T10:54:15;4.43;;;1.40;;
36593;SDS011;22603;47.900;8.146;2022-08-21T10:57:11;6.65;;;1.60;;
36593;SDS011;22603;47.900;8.146;2022-08-21T11:00:18;3.40;;;1.40;;
36593;SDS011;22603;47.900;8.146;2022-08-21T11:03:07;3.85;;;1.33;;
36593;SDS011;22603;47.900;8.146;2022-08-21T11:05:59;5.53;;;1.55;;
36593;SDS011;22603;47.900;8.146;2022-08-21T11:08:52;7.05;;;1.60;;
36593;SDS011;22603;47.900;8.146;2022-08-21T11:11:45;4.68;;;1.65;;
36593;SDS011;22603;47.900;8.146;2022-08-21T11:14:57;5.63;;;1.77;;
36593;SDS011;22603;47.900;8.146;2022-08-21T11:17:51;4.63;;;1.40;;
36593;SDS011;22603;47.900;8.146;2022-08-21T11:20:46;3.95;;;1.52;;
36593;SDS011;22603;47.900;8.146;2022-08-21T11:23:40;3.70;;;1.33;;
36593;SDS011;22603;47.900;8.146;2022-08-21T11:26:32;5.07;;;1.50;;
36593;SDS011;22603;47.900;8.146;2022-08-21T11:29:26;3.33;;;1.40;;
36593;SDS011;22603;47.900;8.146;2022-08-21T11:35:49;3.95;;;1.48;;
36593;SDS011;22603;47.900;8.146;2022-08-21T11:38:50;3.38;;;1.42;;
36593;SDS011;22603;47.900;8.146;2022-08-21T11:41:46;6.50;;;1.50;;
36593;SDS011;22603;47.900;8.146;2022-08-21T11:44:43;3.05;;;1.45;;
36593;SDS011;22603;47.900;8.146;2022-08-21T11:47:40;8.10;;;1.70;;
36593;SDS011;22603;47.900;8.146;2022-08-21T11:50:42;3.35;;;1.42;;
36593;SDS011;22603;47.900;8.146;2022-08-21T11:53:33;3.10;;;1.50;;
36593;SDS011;22603;47.900;8.146;2022-08-21T11:56:26;3.90;;;1.80;;
36593;SDS011;22603;47.900;8.146;2022-08-21T11:59:19;5.28;;;1.45;;
36593;SDS011;22603;47.900;8.146;2022-08-21T12:02:13;4.72;;;1.70;;
36593;SDS011;22603;47.900;8.146;2022-08-21T12:05:03;7.25;;;1.80;;
36593;SDS011;22603;47.900;8.146;2022-08-21T12:08:02;6.38;;;1.50;;
36593;SDS011;22603;47.900;8.146;2022-08-21T12:10:58;3.42;;;1.35;;
36593;SDS011;22603;47.900;8.146;2022-08-21T12:13:52;5.63;;;1.42;;
36593;SDS011;22603;47.900;8.146;2022-08-21T12:16:44;3.92;;;1.63;;
36593;SDS011;22603;47.900;8.146;2022-08-21T12:19:34;4.28;;;1.40;;
36593;SDS011;22603;47.900;8.146;2022-08-21T12:22:22;4.53;;;1.80;;
36593;SDS011;22603;47.900;8.146;2022-08-21T12:25:23;4.47;;;1.50;;
36593;SDS011;22603;47.900;8.146;2022-08-21T12:28:11;4.47;;;1.58;;
36593;SDS011;22603;47.900;8.146;2022-08-21T12:31:01;6.70;;;1.42;;
36593;SDS011;22603;47.900;8.146;2022-08-21T12:33:54;4.85;;;1.90;;
36593;SDS011;22603;47.900;8.146;2022-08-21T12:36:45;4.55;;;1.60;;
36593;SDS011;22603;47.900;8.146;2022-08-21T12:39:37;4.57;;;1.55;;
36593;SDS011;22603;47.900;8.146;2022-08-21T12:42:33;5.20;;;1.60;;
36593;SDS011;22603;47.900;8.146;2022-08-21T12:45:28;8.88;;;1.90;;
36593;SDS011;22603;47.900;8.146;2022-08-21T12:48:18;3.80;;;1.60;;
36593;SDS011;22603;47.900;8.146;2022-08-21T12:51:10;5.57;;;1.60;;
36593;SDS011;22603;47.900;8.146;2022-08-21T12:53:59;3.65;;;1.70;;
36593;SDS011;22603;47.900;8.146;2022-08-21T12:56:54;5.55;;;1.70;;
36593;SDS011;22603;47.900;8.146;2022-08-21T12:59:44;3.55;;;1.48;;
36593;SDS011;22603;47.900;8.146;2022-08-21T13:02:32;5.15;;;1.40;;
36593;SDS011;22603;47.900;8.146;2022-08-21T13:05:28;5.25;;;1.60;;
36593;SDS011;22603;47.900;8.146;2022-08-21T13:08:18;4.43;;;1.60;;
36593;SDS011;22603;47.900;8.146;2022-08-21T13:11:07;6.32;;;1.55;;
36593;SDS011;22603;47.900;8.146;2022-08-21T13:14:00;6.60;;;1.65;;
36593;SDS011;22603;47.900;8.146;2022-08-21T13:16:53;4.78;;;1.70;;
36593;SDS011;22603;47.900;8.146;2022-08-21T13:19:41;4.35;;;1.80;;
36593;SDS011;22603;47.900;8.146;2022-08-21T13:22:28;3.80;;;1.70;;
36593;SDS011;22603;47.900;8.146;2022-08-21T13:25:19;5.55;;;1.60;;
36593;SDS011;22603;47.900;8.146;2022-08-21T13:28:11;5.50;;;1.60;;
36593;SDS011;22603;47.900;8.146;2022-08-21T13:31:00;5.43;;;1.55;;
36593;SDS011;22603;47.900;8.146;2022-08-21T13:33:48;3.88;;;1.42;;
36593;SDS011;22603;47.900;8.146;2022-08-21T13:36:37;4.13;;;1.40;;
36593;SDS011;22603;47.900;8.146;2022-08-21T13:39:27;3.97;;;1.77;;
36593;SDS011;22603;47.900;8.146;2022-08-21T13:42:14;8.18;;;1.60;;
36593;SDS011;22603;47.900;8.146;2022-08-21T13:45:01;7.63;;;1.63;;
36593;SDS011;22603;47.900;8.146;2022-08-21T13:47:49;3.78;;;1.40;;
36593;SDS011;22603;47.900;8.146;2022-08-21T13:50:39;4.55;;;1.50;;
36593;SDS011;22603;47.900;8.146;2022-08-21T13:53:29;3.05;;;1.33;;
36593;SDS011;22603;47.900;8.146;2022-08-21T13:56:22;4.82;;;1.60;;
36593;SDS011;22603;47.900;8.146;2022-08-21T13:59:11;5.65;;;1.45;;
36593;SDS011;22603;47.900;8.146;2022-08-21T14:02:13;4.55;;;1.55;;
36593;SDS011;22603;47.900;8.146;2022-08-21T14:05:14;5.30;;;1.60;;
36593;SDS011;22603;47.900;8.146;2022-08-21T14:08:06;2.97;;;1.40;;
36593;SDS011;22603;47.900;8.146;2022-08-21T14:10:57;5.50;;;1.67;;
36593;SDS011;22603;47.900;8.146;2022-08-21T14:13:47;5.43;;;1.73;;
36593;SDS011;22603;47.900;8.146;2022-08-21T14:16:42;3.97;;;1.35;;
36593;SDS011;22603;47.900;8.146;2022-08-21T14:19:36;3.88;;;1.40;;
36593;SDS011;22603;47.900;8.146;2022-08-21T14:22:37;4.38;;;1.55;;
36593;SDS011;22603;47.900;8.146;2022-08-21T14:25:41;3.28;;;1.40;;
36593;SDS011;22603;47.900;8.146;2022-08-21T14:28:31;5.68;;;1.40;;
36593;SDS011;22603;47.900;8.146;2022-08-21T14:31:20;2.63;;;1.50;;
36593;SDS011;22603;47.900;8.146;2022-08-21T14:34:07;6.18;;;1.73;;
36593;SDS011;22603;47.900;8.146;2022-08-21T14:37:04;4.63;;;1.67;;
36593;SDS011;22603;47.900;8.146;2022-08-21T14:39:51;5.53;;;1.80;;
36593;SDS011;22603;47.900;8.146;2022-08-21T14:42:40;3.47;;;1.25;;
36593;SDS011;22603;47.900;8.146;2022-08-21T14:45:29;3.95;;;1.70;;
36593;SDS011;22603;47.900;8.146;2022-08-21T14:48:17;3.83;;;1.30;;
36593;SDS011;22603;47.900;8.146;2022-08-21T14:51:05;5.22;;;1.42;;
36593;SDS011;22603;47.900;8.146;2022-08-21T14:53:52;2.78;;;1.40;;
36593;SDS011;22603;47.900;8.146;2022-08-21T14:56:39;4.53;;;1.50;;
36593;SDS011;22603;47.900;8.146;2022-08-21T14:59:28;2.95;;;1.30;;
36593;SDS011;22603;47.900;8.146;2022-08-21T15:02:21;3.67;;;1.58;;
36593;SDS011;22603;47.900;8.146;2022-08-21T15:05:08;4.05;;;1.45;;
36593;SDS011;22603;47.900;8.146;2022-08-21T15:07:55;4.13;;;1.60;;
36593;SDS011;22603;47.900;8.146;2022-08-21T15:10:43;2.80;;;1.42;;
36593;SDS011;22603;47.900;8.146;2022-08-21T15:13:53;3.97;;;1.42;;
36593;SDS011;22603;47.900;8.146;2022-08-21T15:16:44;5.40;;;1.58;;
36593;SDS011;22603;47.900;8.146;2022-08-21T15:19:32;8.55;;;1.70;;
36593;SDS011;22603;47.900;8.146;2022-08-21T15:22:20;4.82;;;1.55;;
36593;SDS011;22603;47.900;8.146;2022-08-21T15:25:12;3.80;;;1.75;;
36593;SDS011;22603;47.900;8.146;2022-08-21T15:27:59;6.85;;;1.70;;
36593;SDS011;22603;47.900;8.146;2022-08-21T15:30:49;3.08;;;1.50;;
36593;SDS011;22603;47.900;8.146;2022-08-21T15:33:38;3.60;;;1.52;;
36593;SDS011;22603;47.900;8.146;2022-08-21T15:36:26;4.57;;;1.50;;
36593;SDS011;22603;47.900;8.146;2022-08-21T15:39:13;2.72;;;1.20;;
36593;SDS011;22603;47.900;8.146;2022-08-21T15:42:01;5.82;;;1.50;;
36593;SDS011;22603;47.900;8.146;2022-08-21T15:44:55;10.98;;;1.50;;
36593;SDS011;22603;47.900;8.146;2022-08-21T15:47:43;6.85;;;1.50;;
36593;SDS011;22603;47.900;8.146;2022-08-21T15:50:33;4.68;;;1.55;;
36593;SDS011;22603;47.900;8.146;2022-08-21T15:53:21;5.45;;;1.60;;
36593;SDS011;22603;47.900;8.146;2022-08-21T15:56:11;3.25;;;1.45;;
36593;SDS011;22603;47.900;8.146;2022-08-21T15:59:20;4.18;;;1.30;;
36593;SDS011;22603;47.900;8.146;2022-08-21T16:02:09;3.58;;;1.38;;
36593;SDS011;22603;47.900;8.146;2022-08-21T16:05:00;7.78;;;1.50;;
36593;SDS011;22603;47.900;8.146;2022-08-21T16:07:49;3.72;;;1.50;;
36593;SDS011;22603;47.900;8.146;2022-08-21T16:10:37;4.07;;;1.33;;
36593;SDS011;22603;47.900;8.146;2022-08-21T16:13:27;6.32;;;1.77;;
36593;SDS011;22603;47.900;8.146;2022-08-21T16:16:20;5.45;;;1.48;;
36593;SDS011;22603;47.900;8.146;2022-08-21T16:19:10;6.80;;;1.60;;
36593;SDS011;22603;47.900;8.146;2022-08-21T16:21:59;3.28;;;1.50;;
36593;SDS011;22603;47.900;8.146;2022-08-21T16:24:47;4.00;;;1.60;;
36593;SDS011;22603;47.900;8.146;2022-08-21T16:27:34;7.03;;;1.67;;
36593;SDS011;22603;47.900;8.146;2022-08-21T16:30:24;5.82;;;1.80;;
36593;SDS011;22603;47.900;8.146;2022-08-21T16:33:14;4.55;;;1.52;;
36593;SDS011;22603;47.900;8.146;2022-08-21T16:36:09;4.53;;;1.30;;
36593;SDS011;22603;47.900;8.146;2022-08-21T16:38:56;5.28;;;1.60;;
36593;SDS011;22603;47.900;8.146;2022-08-21T16:41:46;5.68;;;1.58;;
36593;SDS011;22603;47.900;8.146;2022-08-21T16:47:50;4.43;;;1.70;;
36593;SDS011;22603;47.900;8.146;2022-08-21T16:50:43;3.72;;;1.48;;
36593;SDS011;22603;47.900;8.146;2022-08-21T16:57:18;3.55;;;1.50;;
36593;SDS011;22603;47.900;8.146;2022-08-21T17:00:05;3.45;;;1.67;;
36593;SDS011;22603;47.900;8.146;2022-08-21T17:02:56;3.35;;;1.45;;
36593;SDS011;22603;47.900;8.146;2022-08-21T17:05:43;7.15;;;2.15;;
36593;SDS011;22603;47.900;8.146;2022-08-21T17:08:30;4.65;;;1.58;;
36593;SDS011;22603;47.900;8.146;2022-08-21T17:11:21;2.85;;;1.33;;
36593;SDS011;22603;47.900;8.146;2022-08-21T17:14:23;4.50;;;1.60;;
36593;SDS011;22603;47.900;8.146;2022-08-21T17:17:12;4.50;;;1.52;;